Погода Ал Кгумсна 2 недели

Бенгази, Ливия

16 - 29 июля
  • 16июля
    Сегодня
    +25°
    +32°
    Ясно и безоблачно
    ВремяПогодаТемператураВлажностьДавлениеВетер, м/сВероятность осадков
    02:00Ясно и безоблачно+27°C90 %757 мм1.2 м/с1 %
    05:00Ясно и безоблачно+26°C75 %757 мм1.7 м/с1 %
    08:00Ясно и безоблачно+28°C69 %758 мм0.7 м/с1 %
    11:00Ясно и безоблачно+30°C57 %758 мм4.8 м/с1 %
    14:00Ясно и безоблачно+31°C51 %758 мм4.9 м/с1 %
    17:00Ясно и безоблачно+31°C61 %757 мм4.9 м/с1 %
    20:00Ясно и безоблачно+29°C77 %757 мм2.3 м/с1 %
    23:00Ясно и безоблачно+27°C89 %759 мм1.4 м/с1 %
  • 17июля
    Среда
    +25°
    +32°
    Ясно и безоблачно
    ВремяПогодаТемператураВлажностьДавлениеВетер, м/сВероятность осадков
    02:00Ясно и безоблачно+25°C88 %758 мм1.6 м/с1 %
    05:00Ясно и безоблачно+25°C67 %757 мм2.0 м/с1 %
    08:00Ясно и безоблачно+27°C69 %759 мм1.9 м/с1 %
    11:00Ясно и безоблачно+30°C55 %759 мм5.1 м/с1 %
    14:00Ясно и безоблачно+31°C52 %759 мм5.3 м/с1 %
    17:00Ясно и безоблачно+30°C60 %758 мм5.0 м/с1 %
    20:00Ясно и безоблачно+28°C83 %758 мм3.2 м/с1 %
    23:00Ясно и безоблачно+27°C93 %759 мм2.0 м/с1 %
  • 18июля
    Четверг
    +26°
    +31°
    Ясно и безоблачно
    ВремяПогодаТемператураВлажностьДавлениеВетер, м/сВероятность осадков
    02:00Практически безоблачно+26°C94 %758 мм2.0 м/с1 %
    05:00Практически безоблачно+26°C94 %758 мм3.1 м/с1 %
    08:00Практически безоблачно+27°C86 %759 мм2.4 м/с1 %
    11:00Ясно и безоблачно+29°C70 %759 мм5.1 м/с1 %
    14:00Ясно и безоблачно+31°C68 %759 мм5.1 м/с1 %
    17:00Ясно и безоблачно+30°C73 %759 мм4.9 м/с1 %
    20:00Ясно и безоблачно+29°C81 %759 мм2.6 м/с1 %
    23:00Ясно и безоблачно+27°C88 %759 мм1.2 м/с1 %
  • 19июля
    Пятница
    +26°
    +32°
    Ясно и безоблачно
    ВремяПогодаТемператураВлажностьДавлениеВетер, м/сВероятность осадков
    02:00Ясно и безоблачно+26°C86 %758 мм1.5 м/с1 %
    05:00Ясно и безоблачно+26°C79 %758 мм2.9 м/с1 %
    08:00Ясно и безоблачно+28°C71 %759 мм2.5 м/с1 %
    11:00Ясно и безоблачно+30°C57 %759 мм5.6 м/с1 %
    14:00Ясно и безоблачно+32°C50 %759 мм5.6 м/с1 %
    17:00Ясно и безоблачно+31°C57 %758 мм5.3 м/с1 %
    20:00Ясно и безоблачно+29°C76 %758 мм3.5 м/с1 %
    23:00Ясно и безоблачно+27°C85 %758 мм2.5 м/с1 %
  • 20июля
    Суббота
    +26°
    +32°
    Ясно и безоблачно
    ВремяПогодаТемператураВлажностьДавлениеВетер, м/сВероятность осадков
    02:00Ясно и безоблачно+26°C82 %757 мм2.5 м/с1 %
    05:00Ясно и безоблачно+26°C82 %757 мм3.8 м/с1 %
    08:00Ясно и безоблачно+28°C73 %757 мм3.6 м/с1 %
    11:00Ясно и безоблачно+30°C61 %758 мм6.2 м/с1 %
    14:00Ясно и безоблачно+31°C57 %757 мм6.1 м/с1 %
    17:00Ясно и безоблачно+31°C60 %756 мм5.0 м/с1 %
    20:00Ясно и безоблачно+28°C80 %757 мм2.6 м/с1 %
    23:00Ясно и безоблачно+27°C93 %757 мм1.1 м/с1 %
Мы используем cookies
Соглашаюсь